sensor_id;sensor_type;location;lat;lon;timestamp;pressure;altitude;pressure_sealevel;temperature
45393;BMP280;31129;44.810;10.334;2023-07-09T00:01:38;101233.53;;;27.37
45393;BMP280;31129;44.810;10.334;2023-07-09T00:04:03;101238.47;;;27.29
45393;BMP280;31129;44.810;10.334;2023-07-09T00:06:30;101235.91;;;27.24
45393;BMP280;31129;44.810;10.334;2023-07-09T00:08:56;101243.19;;;27.09
45393;BMP280;31129;44.810;10.334;2023-07-09T00:11:21;101236.91;;;27.18
45393;BMP280;31129;44.810;10.334;2023-07-09T00:13:46;101239.88;;;27.21
45393;BMP280;31129;44.810;10.334;2023-07-09T00:16:18;101238.22;;;27.00
45393;BMP280;31129;44.810;10.334;2023-07-09T00:18:44;101229.47;;;26.96
45393;BMP280;31129;44.810;10.334;2023-07-09T00:21:09;101233.16;;;26.99
45393;BMP280;31129;44.810;10.334;2023-07-09T00:23:35;101229.03;;;26.83
45393;BMP280;31129;44.810;10.334;2023-07-09T00:26:01;101229.47;;;26.54
45393;BMP280;31129;44.810;10.334;2023-07-09T00:28:28;101230.25;;;26.72
45393;BMP280;31129;44.810;10.334;2023-07-09T00:30:53;101227.38;;;26.80
45393;BMP280;31129;44.810;10.334;2023-07-09T00:33:18;101222.81;;;26.67
45393;BMP280;31129;44.810;10.334;2023-07-09T00:35:47;101228.34;;;26.57
45393;BMP280;31129;44.810;10.334;2023-07-09T00:38:14;101225.19;;;26.53
45393;BMP280;31129;44.810;10.334;2023-07-09T00:40:45;101227.03;;;26.58
45393;BMP280;31129;44.810;10.334;2023-07-09T00:43:12;101220.16;;;26.52
45393;BMP280;31129;44.810;10.334;2023-07-09T00:45:39;101230.78;;;26.53
45393;BMP280;31129;44.810;10.334;2023-07-09T00:48:05;101222.00;;;26.57
45393;BMP280;31129;44.810;10.334;2023-07-09T00:50:42;101222.50;;;26.38
45393;BMP280;31129;44.810;10.334;2023-07-09T00:53:19;101229.38;;;26.45
45393;BMP280;31129;44.810;10.334;2023-07-09T00:55:46;101230.78;;;26.53
45393;BMP280;31129;44.810;10.334;2023-07-09T00:58:14;101234.53;;;26.23
45393;BMP280;31129;44.810;10.334;2023-07-09T01:00:49;101231.19;;;26.25
45393;BMP280;31129;44.810;10.334;2023-07-09T01:05:46;101240.56;;;26.20
45393;BMP280;31129;44.810;10.334;2023-07-09T01:08:16;101245.72;;;25.99
45393;BMP280;31129;44.810;10.334;2023-07-09T01:10:49;101238.84;;;25.92
45393;BMP280;31129;44.810;10.334;2023-07-09T01:13:15;101235.03;;;26.05
45393;BMP280;31129;44.810;10.334;2023-07-09T01:15:40;101232.88;;;25.96
45393;BMP280;31129;44.810;10.334;2023-07-09T01:18:06;101236.69;;;25.75
45393;BMP280;31129;44.810;10.334;2023-07-09T01:20:31;101236.59;;;25.91
45393;BMP280;31129;44.810;10.334;2023-07-09T01:22:56;101230.69;;;25.87
45393;BMP280;31129;44.810;10.334;2023-07-09T01:25:25;101232.72;;;25.86
45393;BMP280;31129;44.810;10.334;2023-07-09T01:27:50;101234.78;;;25.86
45393;BMP280;31129;44.810;10.334;2023-07-09T01:30:17;101229.44;;;25.65
45393;BMP280;31129;44.810;10.334;2023-07-09T01:32:48;101228.31;;;25.68
45393;BMP280;31129;44.810;10.334;2023-07-09T01:35:15;101224.44;;;25.63
45393;BMP280;31129;44.810;10.334;2023-07-09T01:37:40;101230.75;;;25.64
45393;BMP280;31129;44.810;10.334;2023-07-09T01:40:06;101218.78;;;25.71
45393;BMP280;31129;44.810;10.334;2023-07-09T01:42:34;101220.69;;;25.68
45393;BMP280;31129;44.810;10.334;2023-07-09T01:45:00;101225.38;;;25.58
45393;BMP280;31129;44.810;10.334;2023-07-09T01:47:30;101228.91;;;25.66
45393;BMP280;31129;44.810;10.334;2023-07-09T01:49:56;101226.69;;;25.57
45393;BMP280;31129;44.810;10.334;2023-07-09T01:52:22;101216.06;;;25.56
45393;BMP280;31129;44.810;10.334;2023-07-09T01:54:48;101214.19;;;25.58
45393;BMP280;31129;44.810;10.334;2023-07-09T01:57:19;101218.09;;;25.63
45393;BMP280;31129;44.810;10.334;2023-07-09T01:59:51;101215.47;;;25.65
45393;BMP280;31129;44.810;10.334;2023-07-09T02:02:18;101222.19;;;25.69
45393;BMP280;31129;44.810;10.334;2023-07-09T02:04:48;101222.75;;;25.60
45393;BMP280;31129;44.810;10.334;2023-07-09T02:07:13;101219.94;;;25.60
45393;BMP280;31129;44.810;10.334;2023-07-09T02:09:39;101217.72;;;25.59
45393;BMP280;31129;44.810;10.334;2023-07-09T02:12:05;101225.38;;;25.58
45393;BMP280;31129;44.810;10.334;2023-07-09T02:14:30;101221.91;;;25.50
45393;BMP280;31129;44.810;10.334;2023-07-09T02:16:55;101224.09;;;25.52
45393;BMP280;31129;44.810;10.334;2023-07-09T02:19:22;101222.22;;;25.54
45393;BMP280;31129;44.810;10.334;2023-07-09T02:21:47;101232.50;;;25.52
45393;BMP280;31129;44.810;10.334;2023-07-09T02:24:12;101228.94;;;25.51
45393;BMP280;31129;44.810;10.334;2023-07-09T02:26:38;101234.16;;;25.47
45393;BMP280;31129;44.810;10.334;2023-07-09T02:29:03;101239.19;;;25.49
45393;BMP280;31129;44.810;10.334;2023-07-09T02:31:29;101241.81;;;25.47
45393;BMP280;31129;44.810;10.334;2023-07-09T02:33:58;101236.25;;;25.39
45393;BMP280;31129;44.810;10.334;2023-07-09T02:36:24;101237.00;;;25.40
45393;BMP280;31129;44.810;10.334;2023-07-09T02:38:49;101243.22;;;25.23
45393;BMP280;31129;44.810;10.334;2023-07-09T02:41:15;101235.69;;;25.41
45393;BMP280;31129;44.810;10.334;2023-07-09T02:43:40;101237.56;;;25.30
45393;BMP280;31129;44.810;10.334;2023-07-09T02:46:06;101235.91;;;25.20
45393;BMP280;31129;44.810;10.334;2023-07-09T02:48:31;101237.00;;;25.32
45393;BMP280;31129;44.810;10.334;2023-07-09T02:50:57;101238.69;;;25.35
45393;BMP280;31129;44.810;10.334;2023-07-09T02:53:22;101246.34;;;25.27
45393;BMP280;31129;44.810;10.334;2023-07-09T02:55:47;101237.94;;;25.27
45393;BMP280;31129;44.810;10.334;2023-07-09T02:58:12;101238.91;;;25.22
45393;BMP280;31129;44.810;10.334;2023-07-09T03:00:38;101243.72;;;25.29
45393;BMP280;31129;44.810;10.334;2023-07-09T03:03:03;101246.16;;;25.25
45393;BMP280;31129;44.810;10.334;2023-07-09T03:05:28;101251.19;;;25.04
45393;BMP280;31129;44.810;10.334;2023-07-09T03:07:54;101246.00;;;25.15
45393;BMP280;31129;44.810;10.334;2023-07-09T03:10:19;101251.19;;;25.19
45393;BMP280;31129;44.810;10.334;2023-07-09T03:12:44;101256.25;;;24.98
45393;BMP280;31129;44.810;10.334;2023-07-09T03:15:10;101258.50;;;24.99
45393;BMP280;31129;44.810;10.334;2023-07-09T03:17:35;101253.81;;;25.02
45393;BMP280;31129;44.810;10.334;2023-07-09T03:20:00;101256.78;;;25.04
45393;BMP280;31129;44.810;10.334;2023-07-09T03:22:25;101251.75;;;25.10
45393;BMP280;31129;44.810;10.334;2023-07-09T03:24:51;101262.94;;;25.17
45393;BMP280;31129;44.810;10.334;2023-07-09T03:27:16;101264.81;;;25.07
45393;BMP280;31129;44.810;10.334;2023-07-09T03:29:41;101269.84;;;25.09
45393;BMP280;31129;44.810;10.334;2023-07-09T03:32:07;101266.69;;;25.05
45393;BMP280;31129;44.810;10.334;2023-07-09T03:34:32;101264.09;;;24.92
45393;BMP280;31129;44.810;10.334;2023-07-09T03:36:57;101267.25;;;24.96
45393;BMP280;31129;44.810;10.334;2023-07-09T03:39:23;101261.09;;;25.05
45393;BMP280;31129;44.810;10.334;2023-07-09T03:41:48;101269.47;;;24.90
45393;BMP280;31129;44.810;10.334;2023-07-09T03:44:13;101263.50;;;24.93
45393;BMP280;31129;44.810;10.334;2023-07-09T03:46:39;101267.06;;;24.94
45393;BMP280;31129;44.810;10.334;2023-07-09T03:49:04;101267.78;;;24.86
45393;BMP280;31129;44.810;10.334;2023-07-09T03:51:29;101273.00;;;24.82
45393;BMP280;31129;44.810;10.334;2023-07-09T03:53:54;101277.09;;;24.74
45393;BMP280;31129;44.810;10.334;2023-07-09T03:56:20;101277.28;;;24.68
45393;BMP280;31129;44.810;10.334;2023-07-09T03:58:45;101280.66;;;24.74
45393;BMP280;31129;44.810;10.334;2023-07-09T04:01:11;101277.66;;;24.72
45393;BMP280;31129;44.810;10.334;2023-07-09T04:03:36;101283.22;;;24.65
45393;BMP280;31129;44.810;10.334;2023-07-09T04:06:02;101284.72;;;24.73
45393;BMP280;31129;44.810;10.334;2023-07-09T04:08:27;101287.91;;;24.70
45393;BMP280;31129;44.810;10.334;2023-07-09T04:10:53;101286.59;;;24.71
45393;BMP280;31129;44.810;10.334;2023-07-09T04:13:19;101274.50;;;24.61
45393;BMP280;31129;44.810;10.334;2023-07-09T04:15:44;101285.06;;;24.55
45393;BMP280;31129;44.810;10.334;2023-07-09T04:18:10;101280.06;;;24.53
45393;BMP280;31129;44.810;10.334;2023-07-09T04:20:35;101282.84;;;24.68
45393;BMP280;31129;44.810;10.334;2023-07-09T04:23:01;101275.63;;;24.80
45393;BMP280;31129;44.810;10.334;2023-07-09T04:25:26;101278.22;;;24.71
45393;BMP280;31129;44.810;10.334;2023-07-09T04:27:52;101274.09;;;24.72
45393;BMP280;31129;44.810;10.334;2023-07-09T04:30:17;101274.69;;;24.63
45393;BMP280;31129;44.810;10.334;2023-07-09T04:32:42;101274.88;;;24.80
45393;BMP280;31129;44.810;10.334;2023-07-09T04:35:08;101282.88;;;24.76
45393;BMP280;31129;44.810;10.334;2023-07-09T04:37:36;101283.59;;;24.61
45393;BMP280;31129;44.810;10.334;2023-07-09T04:40:01;101280.44;;;24.72
45393;BMP280;31129;44.810;10.334;2023-07-09T04:42:26;101283.06;;;24.70
45393;BMP280;31129;44.810;10.334;2023-07-09T04:44:52;101282.50;;;24.79
45393;BMP280;31129;44.810;10.334;2023-07-09T04:47:17;101274.13;;;24.79
45393;BMP280;31129;44.810;10.334;2023-07-09T04:49:42;101278.97;;;24.79
45393;BMP280;31129;44.810;10.334;2023-07-09T04:52:08;101280.09;;;25.06
45393;BMP280;31129;44.810;10.334;2023-07-09T04:54:36;101285.47;;;25.04
45393;BMP280;31129;44.810;10.334;2023-07-09T04:57:02;101292.34;;;24.73
45393;BMP280;31129;44.810;10.334;2023-07-09T04:59:28;101285.84;;;24.85
45393;BMP280;31129;44.810;10.334;2023-07-09T05:01:53;101279.72;;;24.79
45393;BMP280;31129;44.810;10.334;2023-07-09T05:04:19;101279.34;;;24.83
45393;BMP280;31129;44.810;10.334;2023-07-09T05:06:44;101285.47;;;24.89
45393;BMP280;31129;44.810;10.334;2023-07-09T05:09:09;101289.22;;;24.99
45393;BMP280;31129;44.810;10.334;2023-07-09T05:11:35;101295.72;;;24.79
45393;BMP280;31129;44.810;10.334;2023-07-09T05:14:01;101294.81;;;24.99
45393;BMP280;31129;44.810;10.334;2023-07-09T05:16:26;101293.88;;;24.97
45393;BMP280;31129;44.810;10.334;2023-07-09T05:18:51;101298.19;;;25.05
45393;BMP280;31129;44.810;10.334;2023-07-09T05:21:17;101297.78;;;24.94
45393;BMP280;31129;44.810;10.334;2023-07-09T05:23:42;101296.84;;;25.06
45393;BMP280;31129;44.810;10.334;2023-07-09T05:26:07;101302.06;;;25.10
45393;BMP280;31129;44.810;10.334;2023-07-09T05:28:34;101298.50;;;25.17
45393;BMP280;31129;44.810;10.334;2023-07-09T05:30:59;101300.94;;;25.20
45393;BMP280;31129;44.810;10.334;2023-07-09T05:33:24;101305.59;;;25.18
45393;BMP280;31129;44.810;10.334;2023-07-09T05:35:50;101314.00;;;25.10
45393;BMP280;31129;44.810;10.334;2023-07-09T05:38:15;101309.34;;;24.98
45393;BMP280;31129;44.810;10.334;2023-07-09T05:40:41;101305.81;;;25.05
45393;BMP280;31129;44.810;10.334;2023-07-09T05:43:07;101308.03;;;25.14
45393;BMP280;31129;44.810;10.334;2023-07-09T05:45:32;101314.53;;;25.24
45393;BMP280;31129;44.810;10.334;2023-07-09T05:47:58;101317.34;;;25.24
45393;BMP280;31129;44.810;10.334;2023-07-09T05:50:23;101312.13;;;25.36
45393;BMP280;31129;44.810;10.334;2023-07-09T05:52:49;101316.78;;;25.33
45393;BMP280;31129;44.810;10.334;2023-07-09T05:55:14;101320.28;;;25.33
45393;BMP280;31129;44.810;10.334;2023-07-09T05:57:39;101323.28;;;25.28
45393;BMP280;31129;44.810;10.334;2023-07-09T06:00:05;101324.97;;;25.39
45393;BMP280;31129;44.810;10.334;2023-07-09T06:02:38;101317.50;;;25.41
45393;BMP280;31129;44.810;10.334;2023-07-09T06:05:04;101320.09;;;25.54
45393;BMP280;31129;44.810;10.334;2023-07-09T06:07:30;101323.41;;;25.75
45393;BMP280;31129;44.810;10.334;2023-07-09T06:09:55;101320.44;;;25.58
45393;BMP280;31129;44.810;10.334;2023-07-09T06:12:20;101317.69;;;25.51
45393;BMP280;31129;44.810;10.334;2023-07-09T06:14:46;101319.50;;;25.63
45393;BMP280;31129;44.810;10.334;2023-07-09T06:17:12;101313.31;;;25.80
45393;BMP280;31129;44.810;10.334;2023-07-09T06:19:37;101318.84;;;25.95
45393;BMP280;31129;44.810;10.334;2023-07-09T06:22:03;101327.31;;;25.80
45393;BMP280;31129;44.810;10.334;2023-07-09T06:24:28;101324.34;;;26.10
45393;BMP280;31129;44.810;10.334;2023-07-09T06:26:53;101323.00;;;25.87
45393;BMP280;31129;44.810;10.334;2023-07-09T06:29:19;101325.91;;;26.04
45393;BMP280;31129;44.810;10.334;2023-07-09T06:31:44;101325.59;;;26.32
45393;BMP280;31129;44.810;10.334;2023-07-09T06:34:10;101320.16;;;26.34
45393;BMP280;31129;44.810;10.334;2023-07-09T06:36:35;101320.56;;;26.31
45393;BMP280;31129;44.810;10.334;2023-07-09T06:39:01;101317.78;;;26.23
45393;BMP280;31129;44.810;10.334;2023-07-09T06:41:26;101322.44;;;26.28
45393;BMP280;31129;44.810;10.334;2023-07-09T06:43:52;101320.91;;;26.35
45393;BMP280;31129;44.810;10.334;2023-07-09T06:46:18;101317.34;;;26.42
45393;BMP280;31129;44.810;10.334;2023-07-09T06:48:43;101315.81;;;26.41
45393;BMP280;31129;44.810;10.334;2023-07-09T06:51:09;101311.25;;;26.53
45393;BMP280;31129;44.810;10.334;2023-07-09T06:53:34;101317.47;;;26.76
45393;BMP280;31129;44.810;10.334;2023-07-09T06:55:59;101322.31;;;26.76
45393;BMP280;31129;44.810;10.334;2023-07-09T06:58:26;101309.34;;;26.88
45393;BMP280;31129;44.810;10.334;2023-07-09T07:00:53;101313.72;;;26.98
45393;BMP280;31129;44.810;10.334;2023-07-09T07:03:18;101315.94;;;27.00
45393;BMP280;31129;44.810;10.334;2023-07-09T07:05:44;101321.41;;;26.98
45393;BMP280;31129;44.810;10.334;2023-07-09T07:08:10;101322.09;;;26.81
45393;BMP280;31129;44.810;10.334;2023-07-09T07:10:36;101320.34;;;26.86
45393;BMP280;31129;44.810;10.334;2023-07-09T07:13:01;101329.13;;;26.90
45393;BMP280;31129;44.810;10.334;2023-07-09T07:15:26;101322.22;;;27.08
45393;BMP280;31129;44.810;10.334;2023-07-09T07:17:52;101329.19;;;27.07
45393;BMP280;31129;44.810;10.334;2023-07-09T07:20:17;101328.84;;;27.03
45393;BMP280;31129;44.810;10.334;2023-07-09T07:22:43;101323.44;;;27.22
45393;BMP280;31129;44.810;10.334;2023-07-09T07:25:08;101322.38;;;27.35
45393;BMP280;31129;44.810;10.334;2023-07-09T07:27:34;101327.16;;;27.42
45393;BMP280;31129;44.810;10.334;2023-07-09T07:30:00;101322.69;;;27.39
45393;BMP280;31129;44.810;10.334;2023-07-09T07:32:25;101323.75;;;27.60
45393;BMP280;31129;44.810;10.334;2023-07-09T07:34:50;101323.00;;;27.77
45393;BMP280;31129;44.810;10.334;2023-07-09T07:37:17;101323.06;;;27.87
45393;BMP280;31129;44.810;10.334;2023-07-09T07:39:44;101325.56;;;27.83
45393;BMP280;31129;44.810;10.334;2023-07-09T07:42:09;101324.91;;;27.75
45393;BMP280;31129;44.810;10.334;2023-07-09T07:44:35;101329.94;;;27.76
45393;BMP280;31129;44.810;10.334;2023-07-09T07:47:01;101326.78;;;27.89
45393;BMP280;31129;44.810;10.334;2023-07-09T07:49:26;101321.75;;;27.88
45393;BMP280;31129;44.810;10.334;2023-07-09T07:51:51;101321.63;;;28.12
45393;BMP280;31129;44.810;10.334;2023-07-09T07:54:17;101326.56;;;28.04
45393;BMP280;31129;44.810;10.334;2023-07-09T07:56:43;101323.72;;;27.95
45393;BMP280;31129;44.810;10.334;2023-07-09T07:59:08;101325.59;;;28.09
45393;BMP280;31129;44.810;10.334;2023-07-09T08:01:34;101321.63;;;28.12
45393;BMP280;31129;44.810;10.334;2023-07-09T08:04:01;101312.09;;;28.25
45393;BMP280;31129;44.810;10.334;2023-07-09T08:06:26;101315.88;;;28.20
45393;BMP280;31129;44.810;10.334;2023-07-09T08:08:52;101318.63;;;28.37
45393;BMP280;31129;44.810;10.334;2023-07-09T08:11:17;101313.03;;;28.47
45393;BMP280;31129;44.810;10.334;2023-07-09T08:13:43;101307.94;;;28.62
45393;BMP280;31129;44.810;10.334;2023-07-09T08:16:08;101308.72;;;28.73
45393;BMP280;31129;44.810;10.334;2023-07-09T08:18:36;101308.72;;;28.82
45393;BMP280;31129;44.810;10.334;2023-07-09T08:21:01;101304.28;;;28.79
45393;BMP280;31129;44.810;10.334;2023-07-09T08:23:27;101306.72;;;29.02
45393;BMP280;31129;44.810;10.334;2023-07-09T08:25:55;101308.75;;;28.92
45393;BMP280;31129;44.810;10.334;2023-07-09T08:28:21;101312.00;;;28.98
45393;BMP280;31129;44.810;10.334;2023-07-09T08:30:47;101301.84;;;29.02
45393;BMP280;31129;44.810;10.334;2023-07-09T08:33:12;101304.03;;;29.04
45393;BMP280;31129;44.810;10.334;2023-07-09T08:35:37;101308.34;;;29.15
45393;BMP280;31129;44.810;10.334;2023-07-09T08:38:03;101298.00;;;29.27
45393;BMP280;31129;44.810;10.334;2023-07-09T08:40:28;101301.81;;;29.22
45393;BMP280;31129;44.810;10.334;2023-07-09T08:42:56;101299.44;;;29.28
45393;BMP280;31129;44.810;10.334;2023-07-09T08:48:09;101300.78;;;29.55
45393;BMP280;31129;44.810;10.334;2023-07-09T08:50:42;101300.03;;;29.65
45393;BMP280;31129;44.810;10.334;2023-07-09T08:53:31;101297.50;;;29.69
45393;BMP280;31129;44.810;10.334;2023-07-09T08:55:57;101306.41;;;29.65
45393;BMP280;31129;44.810;10.334;2023-07-09T08:58:25;101301.38;;;29.64
45393;BMP280;31129;44.810;10.334;2023-07-09T09:00:57;101298.72;;;30.06
45393;BMP280;31129;44.810;10.334;2023-07-09T09:05:54;101310.31;;;29.91
45393;BMP280;31129;44.810;10.334;2023-07-09T09:11:04;101300.75;;;30.25
45393;BMP280;31129;44.810;10.334;2023-07-09T09:13:32;101296.75;;;30.18
45393;BMP280;31129;44.810;10.334;2023-07-09T09:15:59;101297.22;;;30.15
45393;BMP280;31129;44.810;10.334;2023-07-09T09:18:27;101296.41;;;30.33
45393;BMP280;31129;44.810;10.334;2023-07-09T09:23:38;101300.53;;;30.42
45393;BMP280;31129;44.810;10.334;2023-07-09T09:26:05;101301.50;;;30.56
45393;BMP280;31129;44.810;10.334;2023-07-09T09:28:35;101303.63;;;30.67
45393;BMP280;31129;44.810;10.334;2023-07-09T09:31:00;101306.16;;;30.73
45393;BMP280;31129;44.810;10.334;2023-07-09T09:33:36;101309.88;;;30.66
45393;BMP280;31129;44.810;10.334;2023-07-09T09:36:02;101300.41;;;30.82
45393;BMP280;31129;44.810;10.334;2023-07-09T09:38:28;101305.66;;;30.97
45393;BMP280;31129;44.810;10.334;2023-07-09T09:40:59;101304.84;;;31.06
45393;BMP280;31129;44.810;10.334;2023-07-09T09:43:24;101298.28;;;31.13
45393;BMP280;31129;44.810;10.334;2023-07-09T09:45:56;101305.06;;;31.32
45393;BMP280;31129;44.810;10.334;2023-07-09T09:48:31;101301.66;;;31.12
45393;BMP280;31129;44.810;10.334;2023-07-09T09:50:57;101306.25;;;31.17
45393;BMP280;31129;44.810;10.334;2023-07-09T09:53:26;101307.53;;;31.04
45393;BMP280;31129;44.810;10.334;2023-07-09T09:55:53;101302.63;;;31.05
45393;BMP280;31129;44.810;10.334;2023-07-09T09:58:19;101304.47;;;31.33
45393;BMP280;31129;44.810;10.334;2023-07-09T10:00:51;101298.22;;;31.35
45393;BMP280;31129;44.810;10.334;2023-07-09T10:03:18;101303.03;;;31.44
45393;BMP280;31129;44.810;10.334;2023-07-09T10:05:44;101299.97;;;31.51
45393;BMP280;31129;44.810;10.334;2023-07-09T10:08:15;101301.69;;;31.45
45393;BMP280;31129;44.810;10.334;2023-07-09T10:10:42;101294.13;;;31.59
45393;BMP280;31129;44.810;10.334;2023-07-09T10:13:20;101304.97;;;31.74
45393;BMP280;31129;44.810;10.334;2023-07-09T10:18:35;101303.44;;;31.73
45393;BMP280;31129;44.810;10.334;2023-07-09T10:21:10;101303.00;;;31.77
45393;BMP280;31129;44.810;10.334;2023-07-09T10:23:39;101293.66;;;31.86
45393;BMP280;31129;44.810;10.334;2023-07-09T10:26:11;101295.50;;;31.81
45393;BMP280;31129;44.810;10.334;2023-07-09T10:31:06;101286.78;;;31.77
45393;BMP280;31129;44.810;10.334;2023-07-09T10:36:01;101295.16;;;31.98
45393;BMP280;31129;44.810;10.334;2023-07-09T10:38:38;101293.16;;;32.12
45393;BMP280;31129;44.810;10.334;2023-07-09T10:41:07;101298.47;;;31.95
45393;BMP280;31129;44.810;10.334;2023-07-09T10:43:38;101295.13;;;32.10
45393;BMP280;31129;44.810;10.334;2023-07-09T10:46:11;101291.19;;;32.15
45393;BMP280;31129;44.810;10.334;2023-07-09T10:48:38;101285.31;;;32.11
45393;BMP280;31129;44.810;10.334;2023-07-09T10:51:04;101288.78;;;32.09
45393;BMP280;31129;44.810;10.334;2023-07-09T10:53:43;101284.59;;;32.10
45393;BMP280;31129;44.810;10.334;2023-07-09T10:56:14;101285.81;;;32.31
45393;BMP280;31129;44.810;10.334;2023-07-09T10:58:48;101277.06;;;32.27
45393;BMP280;31129;44.810;10.334;2023-07-09T11:01:15;101273.97;;;32.46
45393;BMP280;31129;44.810;10.334;2023-07-09T11:06:19;101277.94;;;32.29
45393;BMP280;31129;44.810;10.334;2023-07-09T11:08:45;101281.72;;;32.34
45393;BMP280;31129;44.810;10.334;2023-07-09T11:11:24;101267.69;;;32.47
45393;BMP280;31129;44.810;10.334;2023-07-09T11:13:54;101275.41;;;32.70
45393;BMP280;31129;44.810;10.334;2023-07-09T11:16:27;101278.22;;;32.70
45393;BMP280;31129;44.810;10.334;2023-07-09T11:18:58;101266.47;;;32.87
45393;BMP280;31129;44.810;10.334;2023-07-09T11:21:24;101267.28;;;32.64
45393;BMP280;31129;44.810;10.334;2023-07-09T11:23:51;101272.69;;;32.60
45393;BMP280;31129;44.810;10.334;2023-07-09T11:26:33;101267.53;;;32.68
45393;BMP280;31129;44.810;10.334;2023-07-09T11:36:33;101265.53;;;32.71
45393;BMP280;31129;44.810;10.334;2023-07-09T11:38:59;101266.28;;;32.60
45393;BMP280;31129;44.810;10.334;2023-07-09T11:44:03;101259.75;;;32.81
45393;BMP280;31129;44.810;10.334;2023-07-09T11:46:28;101252.13;;;32.71
45393;BMP280;31129;44.810;10.334;2023-07-09T11:48:54;101251.75;;;32.77
45393;BMP280;31129;44.810;10.334;2023-07-09T11:51:23;101245.88;;;32.98
45393;BMP280;31129;44.810;10.334;2023-07-09T11:53:53;101247.50;;;32.90
45393;BMP280;31129;44.810;10.334;2023-07-09T11:56:20;101244.41;;;32.97
45393;BMP280;31129;44.810;10.334;2023-07-09T11:58:49;101245.06;;;33.09
45393;BMP280;31129;44.810;10.334;2023-07-09T12:01:15;101235.25;;;33.24
45393;BMP280;31129;44.810;10.334;2023-07-09T12:03:42;101242.22;;;33.35
45393;BMP280;31129;44.810;10.334;2023-07-09T12:08:46;101228.19;;;33.50
45393;BMP280;31129;44.810;10.334;2023-07-09T12:11:18;101219.91;;;33.68
45393;BMP280;31129;44.810;10.334;2023-07-09T12:13:44;101230.94;;;33.89
45393;BMP280;31129;44.810;10.334;2023-07-09T12:16:23;101226.31;;;33.96
45393;BMP280;31129;44.810;10.334;2023-07-09T12:18:49;101233.91;;;33.91
45393;BMP280;31129;44.810;10.334;2023-07-09T12:21:14;101218.66;;;33.98
45393;BMP280;31129;44.810;10.334;2023-07-09T12:23:39;101213.41;;;33.93
45393;BMP280;31129;44.810;10.334;2023-07-09T12:26:05;101212.28;;;34.27
45393;BMP280;31129;44.810;10.334;2023-07-09T12:28:31;101208.59;;;34.67
45393;BMP280;31129;44.810;10.334;2023-07-09T12:30:56;101203.94;;;34.45
45393;BMP280;31129;44.810;10.334;2023-07-09T12:33:23;101200.78;;;34.09
45393;BMP280;31129;44.810;10.334;2023-07-09T12:35:57;101198.47;;;34.19
45393;BMP280;31129;44.810;10.334;2023-07-09T12:38:24;101200.00;;;34.36
45393;BMP280;31129;44.810;10.334;2023-07-09T12:40:50;101205.50;;;34.77
45393;BMP280;31129;44.810;10.334;2023-07-09T12:43:17;101196.91;;;34.46
45393;BMP280;31129;44.810;10.334;2023-07-09T12:45:44;101201.50;;;34.53
45393;BMP280;31129;44.810;10.334;2023-07-09T12:48:10;101197.63;;;34.75
45393;BMP280;31129;44.810;10.334;2023-07-09T12:50:37;101190.09;;;35.27
45393;BMP280;31129;44.810;10.334;2023-07-09T12:53:03;101190.25;;;35.31
45393;BMP280;31129;44.810;10.334;2023-07-09T12:55:29;101183.63;;;35.58
45393;BMP280;31129;44.810;10.334;2023-07-09T12:57:57;101188.88;;;35.81
45393;BMP280;31129;44.810;10.334;2023-07-09T13:00:25;101189.19;;;36.04
45393;BMP280;31129;44.810;10.334;2023-07-09T13:02:55;101190.63;;;35.88
45393;BMP280;31129;44.810;10.334;2023-07-09T13:05:23;101179.22;;;35.55
45393;BMP280;31129;44.810;10.334;2023-07-09T13:07:50;101184.22;;;36.23
45393;BMP280;31129;44.810;10.334;2023-07-09T13:10:17;101181.94;;;36.37
45393;BMP280;31129;44.810;10.334;2023-07-09T13:12:48;101184.34;;;36.62
45393;BMP280;31129;44.810;10.334;2023-07-09T13:17:45;101172.50;;;36.50
45393;BMP280;31129;44.810;10.334;2023-07-09T13:20:10;101179.56;;;36.86
45393;BMP280;31129;44.810;10.334;2023-07-09T13:22:35;101177.31;;;37.02
45393;BMP280;31129;44.810;10.334;2023-07-09T13:25:00;101179.59;;;37.06
45393;BMP280;31129;44.810;10.334;2023-07-09T13:27:26;101173.66;;;37.19
45393;BMP280;31129;44.810;10.334;2023-07-09T13:29:51;101170.75;;;37.17
45393;BMP280;31129;44.810;10.334;2023-07-09T13:32:16;101164.75;;;37.29
45393;BMP280;31129;44.810;10.334;2023-07-09T13:34:42;101175.56;;;37.33
45393;BMP280;31129;44.810;10.334;2023-07-09T13:37:11;101170.44;;;37.29
45393;BMP280;31129;44.810;10.334;2023-07-09T13:39:37;101169.69;;;37.48
45393;BMP280;31129;44.810;10.334;2023-07-09T13:42:02;101164.34;;;37.80
45393;BMP280;31129;44.810;10.334;2023-07-09T13:44:29;101166.81;;;37.68
45393;BMP280;31129;44.810;10.334;2023-07-09T13:46:56;101169.34;;;37.18
45393;BMP280;31129;44.810;10.334;2023-07-09T13:49:22;101155.16;;;36.61
45393;BMP280;31129;44.810;10.334;2023-07-09T13:51:49;101154.25;;;36.57
45393;BMP280;31129;44.810;10.334;2023-07-09T13:54:26;101157.16;;;36.77
45393;BMP280;31129;44.810;10.334;2023-07-09T13:56:52;101159.94;;;37.14
45393;BMP280;31129;44.810;10.334;2023-07-09T13:59:21;101154.56;;;37.44
45393;BMP280;31129;44.810;10.334;2023-07-09T14:01:48;101152.66;;;37.50
45393;BMP280;31129;44.810;10.334;2023-07-09T14:04:15;101156.06;;;37.66
45393;BMP280;31129;44.810;10.334;2023-07-09T14:06:42;101154.63;;;38.11
45393;BMP280;31129;44.810;10.334;2023-07-09T14:09:10;101156.25;;;38.16
45393;BMP280;31129;44.810;10.334;2023-07-09T14:11:41;101154.34;;;38.24
45393;BMP280;31129;44.810;10.334;2023-07-09T14:14:23;101149.84;;;38.17
45393;BMP280;31129;44.810;10.334;2023-07-09T14:16:49;101149.50;;;38.29
45393;BMP280;31129;44.810;10.334;2023-07-09T14:19:23;101156.44;;;38.71
45393;BMP280;31129;44.810;10.334;2023-07-09T14:21:49;101158.09;;;38.78